Converse, South Carolina
Current Conditions -  °F | °C
As of 5:55 PM on Saturday 25 Oct 2014 (Local Time) from KSPA Reporting Station
Clear Clear  
Wind Chill: 73°   Ceiling: Unl
Heat Index: 73°   Visibility: 10mi
Dew Point: 41°   Wind: 6mph
Humidity: 31%   Direction: 240°WSW
Pressure: 29.95"   Gusts: NA
Location:  34.99°N, 81.83°W
Report Text: KSPA 252155Z AUTO 24005KT 10SM CLR 23/05 A2995 RMK AO2
Loading
Personal Weather Stations






























Interactive Weather Map New forecast layout! Learn more

10-Day Weather Forecast

Advertisements
Track Severe Weather on mobile